Pigeon Falls, Wisconsin
Current Conditions -  °F | °C
As of 9:15 AM on Saturday 22 Nov 2014 (Local Time) from KBCK Reporting Station
Moderate Fog Moderate Fog  
Wind Chill: 32°   Ceiling: 300
Heat Index: 36°   Visibility: 0.5mi
Dew Point: 36°   Wind: 5mph
Humidity: 100%   Direction: 210°SSW
Pressure: 29.82"   Gusts: NA
Location:  44.43°N, 91.21°W
Report Text: KBCK 221515Z AUTO 21004KT 1/2SM FG OVC003 02/02 A2982 RMK AO2 T00200020
Loading
Personal Weather Stations






























Interactive Weather Map New forecast layout! Learn more

10-Day Weather Forecast

Advertisements
Track Severe Weather on mobile